< Typhoon 199325 1993 Season Typhoon 199327 >
Typhoon 199326 (LOLA)
General InformationTrack Information on Google MapsDetailed Wind InformationList of All Images || Disaster Info.ResourceGoogle EarthGE AnimationAtom FeedGeoJSON
Detalied Best Track (Time Zone = UTC)
Year Month Day Hour Lat. Long. Pressure (hPa) Wind (kt) Class Image Chart
1993 12 1 06 6.0 148.5 1004 0 2 Image Chart
1993 12 1 12 6.5 147.0 1004 0 2 Image Chart
1993 12 1 18 7.2 145.5 1004 0 2 Image Chart
1993 12 2 00 8.0 144.0 1004 0 2 Image Chart
1993 12 2 06 8.8 142.3 1004 0 2 Image Chart
1993 12 2 12 9.6 140.7 1002 0 2 Image Chart
1993 12 2 18 10.3 138.8 1000 35 3 Image Chart
1993 12 3 00 11.0 136.5 996 40 3 Image Chart
1993 12 3 06 11.6 134.2 990 45 3 Image Chart
1993 12 3 12 12.1 132.4 985 50 4 Image Chart
1993 12 3 18 12.7 130.9 985 50 4 Image Chart
1993 12 4 00 13.3 129.3 980 55 4 Image Chart
1993 12 4 06 13.7 128.0 975 60 4 Image Chart
1993 12 4 12 14.0 126.8 970 65 5 Image Chart
1993 12 4 18 14.2 125.8 965 70 5 Image Chart
1993 12 5 00 14.4 124.9 960 75 5 Image Chart
1993 12 5 06 14.4 123.9 955 80 5 Image Chart
1993 12 5 12 14.2 123.0 960 75 5 Image Chart
1993 12 5 18 14.0 122.2 965 70 5 Image Chart
1993 12 6 00 13.8 121.1 975 60 4 Image Chart
1993 12 6 06 13.6 120.2 980 55 4 Image Chart
1993 12 6 12 13.2 119.3 980 55 4 Image Chart
1993 12 6 18 12.7 118.5 980 55 4 Image Chart
1993 12 7 00 12.4 117.8 980 55 4 Image Chart
1993 12 7 06 12.1 116.9 980 55 4 Image Chart
1993 12 7 12 11.9 115.9 980 55 4 Image Chart
1993 12 7 18 11.7 114.9 975 60 4 Image Chart
1993 12 8 00 11.5 113.6 970 65 5 Image Chart
1993 12 8 06 11.3 112.1 965 70 5 Image Chart
1993 12 8 12 11.5 110.4 960 75 5 Image Chart
1993 12 8 18 12.0 109.0 970 65 5 Image Chart
1993 12 9 00 12.6 107.5 985 50 4 Image Chart
1993 12 9 06 13.2 106.3 1000 35 3 Image Chart
1993 12 9 12 13.5 105.5 1004 0 2 Image Chart
1993 12 9 18 13.5 105.0 1006 0 2 Image Chart
Japan Meteorological Agency Best Track Data | Correction Date : 1994-01-10
< Typhoon 199325 1993 Season Typhoon 199327 >

Help